Time;durP1;ratioP1;P1;durP2;ratioP2;P2;SDS_P1;SDS_P2;PMS_P1;PMS_P2;Temp;Humidity;BMP_temperature;BMP_pressure;BME280_temperature;BME280_humidity;BME280_pressure;Samples;Min_cycle;Max_cycle;Signal;HPM_P1;HPM_P2
2022/04/04 00:01:51;;;;;;;3.13;1.40;;;20.20;56.40;;;;;;5131572;27;20034;-65
2022/04/04 00:04:20;;;;;;;5.25;1.35;;;20.30;54.40;;;;;;5131538;27;20027;-65
2022/04/04 00:06:47;;;;;;;2.85;1.23;;;20.30;55.00;;;;;;5131296;28;20051;-65
2022/04/04 00:09:14;;;;;;;3.50;1.60;;;20.30;53.70;;;;;;5131447;28;20102;-65
2022/04/04 00:11:41;;;;;;;4.75;1.55;;;20.40;56.10;;;;;;5113248;28;20032;-65
2022/04/04 00:14:08;;;;;;;4.82;1.52;;;20.40;55.30;;;;;;5131520;28;20146;-65
2022/04/04 00:16:35;;;;;;;3.55;1.42;;;20.50;53.90;;;;;;5113159;28;20129;-65
2022/04/04 00:19:04;;;;;;;2.60;1.60;;;20.50;55.00;;;;;;5131529;28;20408;-65
2022/04/04 00:21:32;;;;;;;2.53;1.17;;;20.50;55.40;;;;;;5131179;28;20207;-65
2022/04/04 00:23:59;;;;;;;4.47;1.60;;;20.60;53.80;;;;;;5113414;28;20065;-65
2022/04/04 00:26:26;;;;;;;3.75;1.20;;;20.60;52.60;;;;;;5130973;28;20406;-65
2022/04/04 00:28:53;;;;;;;5.32;1.40;;;20.70;50.70;;;;;;5132293;27;20031;-65
2022/04/04 00:31:20;;;;;;;5.60;1.45;;;20.70;49.40;;;;;;5117464;27;20043;-65
2022/04/04 00:33:48;;;;;;;2.58;1.27;;;20.70;50.90;;;;;;5135953;27;20112;-65
2022/04/04 00:36:15;;;;;;;2.78;1.13;;;20.70;50.30;;;;;;5135429;27;20046;-65
2022/04/04 00:38:42;;;;;;;1.75;1.20;;;20.80;50.80;;;;;;5135341;27;20034;-65
2022/04/04 00:41:15;;;;;;;4.00;1.30;;;20.80;51.50;;;;;;5135369;27;20400;-65
2022/04/04 00:43:42;;;;;;;3.65;1.60;;;20.80;50.90;;;;;;5117289;27;20046;-65
2022/04/04 00:46:09;;;;;;;4.43;1.83;;;20.90;52.70;;;;;;5117145;27;20366;-65
2022/04/04 00:48:37;;;;;;;3.92;1.23;;;20.90;51.70;;;;;;5135167;27;20389;-65
2022/04/04 00:51:04;;;;;;;3.72;1.42;;;20.90;51.30;;;;;;5134704;27;20024;-65
2022/04/04 00:53:31;;;;;;;7.47;1.58;;;20.90;50.90;;;;;;5135608;27;20066;-65
2022/04/04 00:55:58;;;;;;;3.03;1.50;;;20.90;51.40;;;;;;5116832;27;20115;-65
2022/04/04 00:58:25;;;;;;;1.60;1.10;;;21.00;52.10;;;;;;5116786;27;20043;-65
2022/04/04 01:00:53;;;;;;;4.57;1.15;;;21.00;50.40;;;;;;5099586;27;20477;-65
2022/04/04 01:03:20;;;;;;;3.83;1.40;;;21.10;49.70;;;;;;5116789;27;20087;-65
2022/04/04 01:05:47;;;;;;;5.38;1.70;;;21.10;51.00;;;;;;5134228;27;20024;-65
2022/04/04 01:08:15;;;;;;;3.40;1.50;;;21.20;49.80;;;;;;5134619;27;20034;-65
2022/04/04 01:10:43;;;;;;;3.08;1.52;;;21.20;51.00;;;;;;5135001;27;20037;-65
2022/04/04 01:13:11;;;;;;;2.75;1.42;;;21.20;51.50;;;;;;5134634;27;20045;-65
2022/04/04 01:15:38;;;;;;;2.22;1.08;;;21.30;50.10;;;;;;5099122;27;20374;-65
2022/04/04 01:18:06;;;;;;;2.67;1.30;;;21.30;49.60;;;;;;5134047;27;20042;-65
2022/04/04 01:20:34;;;;;;;2.10;1.30;;;21.30;48.70;;;;;;5134754;27;20029;-65
2022/04/04 01:23:01;;;;;;;3.05;1.30;;;21.30;49.20;;;;;;5134713;27;20110;-65
2022/04/04 01:25:30;;;;;;;5.18;1.40;;;21.30;49.90;;;;;;5116664;27;20039;-65
2022/04/04 01:27:57;;;;;;;6.55;1.80;;;21.40;51.20;;;;;;5098869;27;20039;-65
2022/04/04 01:30:25;;;;;;;3.55;1.50;;;21.40;51.90;;;;;;5133901;27;20042;-65
2022/04/04 01:32:53;;;;;;;4.20;1.73;;;21.50;51.90;;;;;;5134885;27;20389;-65
2022/04/04 01:35:20;;;;;;;4.95;1.60;;;21.50;50.60;;;;;;5116302;27;20051;-65
2022/04/04 01:37:48;;;;;;;3.30;1.20;;;21.50;50.10;;;;;;5116329;27;20039;-65
2022/04/04 01:40:15;;;;;;;6.28;1.58;;;21.50;49.30;;;;;;5133694;27;20084;-65
2022/04/04 01:42:46;;;;;;;2.15;1.52;;;21.50;50.30;;;;;;5133903;27;20115;-65
2022/04/04 01:45:14;;;;;;;3.60;1.30;;;21.60;49.60;;;;;;5133415;27;20516;-65
2022/04/04 01:47:41;;;;;;;3.78;1.10;;;21.60;50.10;;;;;;5134363;27;20035;-65
2022/04/04 01:50:09;;;;;;;4.85;1.23;;;21.70;49.70;;;;;;5133839;27;20035;-65
2022/04/04 01:52:36;;;;;;;3.05;1.50;;;21.70;49.20;;;;;;5115488;27;20050;-65
2022/04/04 01:55:03;;;;;;;2.05;1.17;;;21.70;49.60;;;;;;5115846;27;20507;-65
2022/04/04 01:57:31;;;;;;;1.83;1.13;;;21.70;49.20;;;;;;5133624;27;20053;-66
2022/04/04 01:59:58;;;;;;;1.95;1.35;;;21.70;49.30;;;;;;5133740;27;20027;-65
2022/04/04 02:02:25;;;;;;;4.57;1.25;;;21.70;49.10;;;;;;5115871;27;20077;-65
2022/04/04 02:04:53;;;;;;;2.80;1.38;;;21.70;49.50;;;;;;5115591;27;20027;-65
2022/04/04 02:07:20;;;;;;;5.03;1.60;;;21.80;49.40;;;;;;5133775;27;20058;-65
2022/04/04 02:09:47;;;;;;;4.47;1.20;;;21.80;49.30;;;;;;5133018;27;20035;-65
2022/04/04 02:12:14;;;;;;;3.22;1.25;;;21.80;49.70;;;;;;5133646;27;20477;-65
2022/04/04 02:14:41;;;;;;;8.40;1.55;;;21.80;48.80;;;;;;5133642;27;20031;-65
2022/04/04 02:17:08;;;;;;;5.78;1.50;;;21.90;50.50;;;;;;5133253;27;20043;-65
2022/04/04 02:19:36;;;;;;;3.60;1.67;;;21.90;51.00;;;;;;5133622;27;20130;-65
2022/04/04 02:22:03;;;;;;;3.42;1.50;;;22.00;49.90;;;;;;5133303;27;20035;-65
2022/04/04 02:24:30;;;;;;;3.10;1.25;;;22.00;50.40;;;;;;5132949;27;20053;-65
2022/04/04 02:26:57;;;;;;;2.08;1.15;;;22.00;48.60;;;;;;5133358;27;20035;-65
2022/04/04 02:29:24;;;;;;;2.83;1.25;;;22.00;48.10;;;;;;5133476;27;20335;-65
2022/04/04 02:31:51;;;;;;;3.97;1.58;;;21.90;47.80;;;;;;5133429;27;20451;-65
2022/04/04 02:34:18;;;;;;;2.17;1.00;;;21.80;48.20;;;;;;5132952;27;20031;-65
2022/04/04 02:36:46;;;;;;;2.38;1.10;;;21.80;48.10;;;;;;5114725;27;20489;-65
2022/04/04 02:39:13;;;;;;;5.10;1.40;;;21.80;49.40;;;;;;5133210;27;20023;-65
2022/04/04 02:41:40;;;;;;;1.80;1.02;;;21.80;50.30;;;;;;5115014;27;20545;-65
2022/04/04 02:44:07;;;;;;;2.63;1.20;;;21.70;49.20;;;;;;5133140;27;20039;-65
2022/04/04 02:46:35;;;;;;;4.28;1.40;;;21.80;48.40;;;;;;5133236;27;20039;-65
2022/04/04 02:49:02;;;;;;;2.33;1.40;;;21.90;48.50;;;;;;5132308;27;20035;-65
2022/04/04 02:51:29;;;;;;;5.50;1.27;;;21.90;48.70;;;;;;5131899;27;20477;-65
2022/04/04 02:53:57;;;;;;;5.32;1.48;;;22.00;50.80;;;;;;5097472;27;20397;-65
2022/04/04 02:56:30;;;;;;;4.38;1.50;;;22.00;50.80;;;;;;5132807;27;20039;-65
2022/04/04 02:58:59;;;;;;;5.38;1.35;;;22.10;50.80;;;;;;5132788;27;20030;-65
2022/04/04 03:01:26;;;;;;;1.50;1.00;;;22.20;48.80;;;;;;5114363;27;20035;-65
2022/04/04 03:03:53;;;;;;;1.15;1.05;;;22.20;48.30;;;;;;5132281;27;20034;-65
2022/04/04 03:06:20;;;;;;;2.53;1.63;;;22.20;48.30;;;;;;5132686;27;20031;-65
2022/04/04 03:08:47;;;;;;;2.33;1.27;;;22.30;49.00;;;;;;5114090;27;20465;-65
2022/04/04 03:11:15;;;;;;;3.72;1.50;;;22.30;49.80;;;;;;5132471;27;20401;-65
2022/04/04 03:13:42;;;;;;;4.13;1.30;;;22.30;50.80;;;;;;5132553;27;20039;-65
2022/04/04 03:16:09;;;;;;;3.88;1.58;;;22.30;50.30;;;;;;5131719;27;20042;-65
2022/04/04 03:18:37;;;;;;;2.72;1.20;;;22.30;49.80;;;;;;5132554;27;20062;-65
2022/04/04 03:21:05;;;;;;;2.45;1.23;;;22.40;49.40;;;;;;5114108;27;20385;-65
2022/04/04 03:23:33;;;;;;;2.25;1.20;;;22.40;48.90;;;;;;5114003;27;20080;-65
2022/04/04 03:26:00;;;;;;;5.03;1.30;;;22.30;48.50;;;;;;5132573;27;20050;-65
2022/04/04 03:28:28;;;;;;;3.15;1.20;;;22.30;48.80;;;;;;5113557;27;20027;-65
2022/04/04 03:30:55;;;;;;;3.63;1.20;;;22.40;48.50;;;;;;5132187;27;20356;-65
2022/04/04 03:33:22;;;;;;;2.85;1.17;;;22.40;47.70;;;;;;5113609;27;20068;-65
2022/04/04 03:35:49;;;;;;;3.88;1.20;;;22.50;48.00;;;;;;5113831;27;20039;-65
2022/04/04 03:38:17;;;;;;;4.40;1.35;;;22.50;47.90;;;;;;5113335;27;20484;-65
2022/04/04 03:40:45;;;;;;;2.20;1.30;;;22.50;47.10;;;;;;5112959;27;20488;-65
2022/04/04 03:43:13;;;;;;;3.42;1.30;;;22.60;47.70;;;;;;5113239;27;20055;-66
2022/04/04 03:45:40;;;;;;;2.67;1.42;;;22.60;49.10;;;;;;5131885;27;20561;-65
2022/04/04 03:48:08;;;;;;;2.28;1.30;;;22.60;50.50;;;;;;5132059;27;20083;-65
2022/04/04 03:50:35;;;;;;;5.97;1.40;;;22.60;48.10;;;;;;5131444;27;20023;-66
2022/04/04 03:53:03;;;;;;;4.95;1.73;;;22.70;48.10;;;;;;5131467;27;20452;-65
2022/04/04 03:55:32;;;;;;;2.92;1.33;;;22.80;50.00;;;;;;5131179;27;20061;-65
2022/04/04 03:58:00;;;;;;;2.90;1.30;;;22.80;49.70;;;;;;5131451;27;20035;-65
2022/04/04 04:00:27;;;;;;;5.05;1.35;;;22.80;48.70;;;;;;5113754;27;20118;-65
2022/04/04 04:02:54;;;;;;;5.28;1.20;;;22.80;47.80;;;;;;5131395;27;20027;-65
2022/04/04 04:05:21;;;;;;;3.92;1.30;;;22.80;49.20;;;;;;5131546;27;20042;-65
2022/04/04 04:07:49;;;;;;;4.38;1.48;;;22.80;49.90;;;;;;5096080;28;20027;-65
2022/04/04 04:10:16;;;;;;;2.17;1.13;;;22.80;49.00;;;;;;5132040;28;20039;-65
2022/04/04 04:12:44;;;;;;;6.95;1.45;;;22.80;49.20;;;;;;5131673;28;20038;-65
2022/04/04 04:15:16;;;;;;;4.35;1.42;;;22.80;48.50;;;;;;5131697;28;20055;-65
2022/04/04 04:17:43;;;;;;;3.45;1.30;;;22.80;50.00;;;;;;5113793;28;20468;-65
2022/04/04 04:20:19;;;;;;;1.98;1.10;;;22.80;50.00;;;;;;5096115;28;20031;-65
2022/04/04 04:23:04;;;;;;;3.33;1.60;;;22.80;50.30;;;;;;5114844;28;20113;-65
2022/04/04 04:25:32;;;;;;;3.63;1.27;;;22.80;49.20;;;;;;5113328;28;20041;-65
2022/04/04 04:28:01;;;;;;;3.33;1.50;;;22.90;47.90;;;;;;5131060;28;20038;-65
2022/04/04 04:30:29;;;;;;;4.03;1.63;;;22.90;49.20;;;;;;5130923;28;20066;-65
2022/04/04 04:32:56;;;;;;;6.22;1.52;;;22.90;48.30;;;;;;5112650;28;20072;-65
2022/04/04 04:35:24;;;;;;;3.80;1.05;;;22.90;48.30;;;;;;5131171;28;20114;-65
2022/04/04 04:37:52;;;;;;;2.10;1.25;;;23.00;47.60;;;;;;5131463;28;20388;-65
2022/04/04 04:40:19;;;;;;;2.45;1.23;;;23.00;46.10;;;;;;5112638;28;20111;-65
2022/04/04 04:42:47;;;;;;;4.72;1.52;;;23.10;46.20;;;;;;5112906;28;20054;-65
2022/04/04 04:45:14;;;;;;;3.83;1.50;;;23.20;47.80;;;;;;5128349;28;20385;-65
2022/04/04 04:47:42;;;;;;;6.70;1.40;;;23.20;46.00;;;;;;5126594;28;20035;-72
2022/04/04 04:50:10;;;;;;;3.85;1.27;;;23.20;46.60;;;;;;5095183;28;20468;-73
2022/04/04 04:52:37;;;;;;;3.17;1.30;;;23.20;46.10;;;;;;5112126;28;20134;-73
2022/04/04 04:55:05;;;;;;;5.25;1.20;;;23.20;45.70;;;;;;5112867;28;20020;-73
2022/04/04 04:57:32;;;;;;;5.03;1.50;;;23.20;44.40;;;;;;5096328;28;20032;-73
2022/04/04 05:00:03;;;;;;;5.07;1.35;;;23.30;45.10;;;;;;5112453;28;20033;-73
2022/04/04 05:02:30;;;;;;;8.45;1.80;;;23.30;45.20;;;;;;5131072;28;20035;-73
2022/04/04 05:04:58;;;;;;;8.63;1.90;;;23.30;45.00;;;;;;5111869;28;20421;-73
2022/04/04 05:07:25;;;;;;;27.10;8.15;;;23.30;44.70;;;;;;5112197;28;20384;-67
2022/04/04 05:09:52;;;;;;;6.97;1.70;;;23.30;46.20;;;;;;5130369;28;20027;-66
2022/04/04 05:12:19;;;;;;;4.47;2.33;;;23.30;45.00;;;;;;5130435;28;20035;-66
2022/04/04 05:14:48;;;;;;;13.93;4.05;;;23.30;44.80;;;;;;5130675;27;20134;-66
2022/04/04 05:17:15;;;;;;;11.48;2.60;;;23.20;45.50;;;;;;5108070;27;20052;-66
2022/04/04 05:19:42;;;;;;;5.18;1.52;;;23.20;46.20;;;;;;5134122;27;20448;-66
2022/04/04 05:22:10;;;;;;;3.35;1.10;;;23.20;44.90;;;;;;5133706;27;20045;-66
2022/04/04 05:24:37;;;;;;;8.45;1.35;;;23.30;43.50;;;;;;5134315;27;20027;-66
2022/04/04 05:27:04;;;;;;;4.60;1.60;;;23.30;44.50;;;;;;5119801;27;20023;-66
2022/04/04 05:29:31;;;;;;;5.50;1.88;;;23.20;44.70;;;;;;5130805;27;20027;-63
2022/04/04 05:31:59;;;;;;;14.18;2.55;;;23.20;46.10;;;;;;5133857;27;20095;-64
2022/04/04 05:34:26;;;;;;;5.22;1.92;;;23.00;45.90;;;;;;5134371;27;20114;-64
2022/04/04 05:36:54;;;;;;;8.52;2.53;;;23.00;44.30;;;;;;5133549;27;20035;-65
2022/04/04 05:39:21;;;;;;;9.40;2.35;;;22.90;47.10;;;;;;5133193;27;20385;-64
2022/04/04 05:41:48;;;;;;;5.32;1.48;;;22.90;45.70;;;;;;5114256;27;20092;-64
2022/04/04 05:44:17;;;;;;;4.05;1.60;;;22.90;46.60;;;;;;5113785;28;20126;-63
2022/04/04 05:46:44;;;;;;;4.85;1.70;;;22.90;49.80;;;;;;5094787;28;20032;-63
2022/04/04 05:49:11;;;;;;;7.15;2.15;;;22.90;51.90;;;;;;5112845;28;20096;-64
2022/04/04 05:51:38;;;;;;;14.93;2.65;;;22.80;52.80;;;;;;5112466;28;20047;-64
2022/04/04 05:54:06;;;;;;;7.28;2.30;;;22.80;55.00;;;;;;5114517;27;20145;-63
2022/04/04 05:56:33;;;;;;;5.63;1.80;;;22.80;54.50;;;;;;5133518;27;20043;-63
2022/04/04 05:59:00;;;;;;;3.22;1.55;;;22.80;54.00;;;;;;5131835;27;20038;-65
2022/04/04 06:01:27;;;;;;;3.67;1.40;;;22.80;53.30;;;;;;5133275;27;20545;-65
2022/04/04 06:03:54;;;;;;;5.95;1.73;;;22.70;53.40;;;;;;5132823;27;20381;-65
2022/04/04 08:07:27;;;;;;;15.63;2.25;;;21.90;63.40;;;;;;5085890;28;20098;-65
2022/04/04 08:09:54;;;;;;;2.58;1.58;;;21.90;64.20;;;;;;5112360;28;20052;-65
2022/04/04 08:12:24;;;;;;;5.65;2.20;;;21.80;64.90;;;;;;5105895;28;20035;-66
2022/04/04 08:14:52;;;;;;;6.13;1.65;;;21.80;65.90;;;;;;5097680;28;20421;-66
2022/04/04 08:17:19;;;;;;;2.50;1.42;;;21.80;67.50;;;;;;5109371;28;20043;-66
2022/04/04 08:19:46;;;;;;;3.72;1.50;;;21.70;68.10;;;;;;5110176;28;20054;-66
2022/04/04 08:22:14;;;;;;;6.53;1.67;;;21.70;68.50;;;;;;5091675;28;20550;-66
2022/04/04 08:24:41;;;;;;;11.82;6.75;;;21.70;69.00;;;;;;5110093;28;20044;-66
2022/04/04 08:27:12;;;;;;;11.50;6.05;;;21.70;69.20;;;;;;5123808;28;20042;-66
2022/04/04 08:29:40;;;;;;;7.60;3.70;;;21.70;69.40;;;;;;5096176;28;20038;-66
2022/04/04 08:32:07;;;;;;;7.85;4.13;;;21.60;69.80;;;;;;5102425;28;20454;-66
2022/04/04 08:34:35;;;;;;;8.57;5.10;;;21.50;70.00;;;;;;5091704;28;20466;-65
2022/04/04 08:37:02;;;;;;;5.03;2.28;;;21.50;70.20;;;;;;5109784;28;20058;-66
2022/04/04 08:39:29;;;;;;;6.72;1.70;;;21.50;70.50;;;;;;5109697;28;20059;-66
2022/04/04 08:41:56;;;;;;;5.95;2.13;;;21.50;71.00;;;;;;5090800;28;20050;-67
2022/04/04 08:44:24;;;;;;;2.08;1.58;;;21.50;71.30;;;;;;5109090;28;20038;-67
2022/04/04 08:46:52;;;;;;;3.28;1.77;;;21.50;71.60;;;;;;5071578;28;20025;-67
2022/04/04 08:49:19;;;;;;;6.05;3.55;;;21.50;71.30;;;;;;5109068;28;20032;-67
2022/04/04 08:51:47;;;;;;;9.13;4.75;;;21.50;71.60;;;;;;5112230;28;20075;-67
2022/04/04 08:54:14;;;;;;;5.50;2.47;;;21.50;71.50;;;;;;5095938;28;20020;-67
2022/04/04 08:56:43;;;;;;;4.70;2.13;;;21.50;71.70;;;;;;5114205;28;20457;-67
2022/04/04 08:59:10;;;;;;;5.00;1.90;;;21.50;72.20;;;;;;5078126;28;20084;-65
2022/04/04 09:01:38;;;;;;;12.13;4.93;;;21.40;72.50;;;;;;5095498;28;20110;-67
2022/04/04 09:04:08;;;;;;;14.93;5.28;;;21.40;72.60;;;;;;5078485;28;20152;-66
2022/04/04 09:06:57;;;;;;;9.23;3.55;;;21.40;72.90;;;;;;5133262;27;20039;-65
2022/04/04 09:09:48;;;;;;;9.68;2.60;;;21.40;73.30;;;;;;5113100;28;20070;-65
2022/04/04 09:12:22;;;;;;;4.97;2.17;;;21.30;73.50;;;;;;5095141;28;20037;-66
2022/04/04 09:14:57;;;;;;;7.85;2.50;;;21.30;73.70;;;;;;5105897;28;20122;-64
2022/04/04 09:17:32;;;;;;;7.03;1.92;;;21.30;73.70;;;;;;5112844;28;20509;-66
2022/04/04 09:19:59;;;;;;;7.05;2.22;;;21.30;73.90;;;;;;5110312;28;20031;-64
2022/04/04 09:22:26;;;;;;;4.93;1.98;;;21.30;74.20;;;;;;5093996;28;20469;-65
2022/04/04 09:24:56;;;;;;;4.82;2.20;;;21.20;74.30;;;;;;5112467;28;20039;-65
2022/04/04 09:27:34;;;;;;;8.93;2.63;;;21.20;74.60;;;;;;5078024;28;20036;-64
2022/04/04 09:30:10;;;;;;;6.13;2.33;;;21.20;74.80;;;;;;5088478;28;20046;-65
2022/04/04 09:32:38;;;;;;;5.47;2.53;;;21.10;75.00;;;;;;5058598;28;20035;-66
2022/04/04 09:35:12;;;;;;;4.68;2.13;;;21.10;75.10;;;;;;5094160;28;20028;-66
2022/04/04 09:37:43;;;;;;;7.00;2.60;;;21.10;75.10;;;;;;5095813;28;20104;-64
2022/04/04 09:40:14;;;;;;;4.47;2.30;;;21.10;75.20;;;;;;5094395;28;20034;-66
2022/04/04 09:42:42;;;;;;;5.88;2.28;;;21.10;75.30;;;;;;5113230;28;20107;-66
2022/04/04 09:45:11;;;;;;;8.27;3.25;;;21.00;75.50;;;;;;5085800;28;20115;-66
2022/04/04 09:48:02;;;;;;;5.97;3.05;;;21.00;75.80;;;;;;5105066;28;20421;-64
2022/04/04 10:55:43;;;;;;;5.70;2.30;;;20.50;79.50;;;;;;5117185;27;20065;-66
2022/04/04 10:58:14;;;;;;;4.57;2.30;;;20.50;79.70;;;;;;5107001;27;20042;-66
2022/04/04 11:00:53;;;;;;;4.63;2.40;;;20.40;79.70;;;;;;5131963;27;20388;-66
2022/04/04 11:03:53;;;;;;;6.97;2.50;;;20.40;79.90;;;;;;5110841;27;20039;-66
2022/04/04 11:09:26;;;;;;;8.30;2.83;;;20.30;80.20;;;;;;5102078;27;20075;-66
2022/04/04 11:11:55;;;;;;;8.55;2.80;;;20.30;80.50;;;;;;5107579;27;20140;-66
2022/04/04 11:14:28;;;;;;;5.22;2.60;;;20.30;80.70;;;;;;5093545;28;20036;-66
2022/04/04 11:17:07;;;;;;;9.43;2.83;;;20.30;80.80;;;;;;5118711;27;20413;-66
2022/04/04 11:19:57;;;;;;;7.07;2.90;;;20.30;80.80;;;;;;5125436;27;20537;-66
2022/04/04 11:22:28;;;;;;;10.07;3.20;;;20.20;80.60;;;;;;5138326;27;20332;-66
2022/04/04 11:25:03;;;;;;;8.90;3.05;;;20.20;80.90;;;;;;5113184;27;20033;-65
2022/04/04 11:27:35;;;;;;;7.00;3.30;;;20.20;80.90;;;;;;5112479;27;20042;-66
2022/04/04 11:30:13;;;;;;;7.50;2.53;;;20.20;80.50;;;;;;5107071;27;20118;-66
2022/04/04 11:32:40;;;;;;;8.30;2.70;;;20.20;80.50;;;;;;5125776;27;20035;-66
2022/04/04 11:35:18;;;;;;;5.03;2.42;;;20.20;80.80;;;;;;5105425;27;20038;-66
2022/04/04 11:37:49;;;;;;;10.00;2.67;;;20.10;80.50;;;;;;5118790;27;20522;-67
2022/04/04 11:40:25;;;;;;;6.15;2.40;;;20.10;80.90;;;;;;5141768;27;20066;-65
2022/04/04 11:42:53;;;;;;;4.70;2.08;;;20.10;80.40;;;;;;5097270;27;20095;-65
2022/04/04 11:45:22;;;;;;;5.13;2.55;;;20.10;80.20;;;;;;5119398;27;20034;-65
2022/04/04 11:48:02;;;;;;;3.72;2.55;;;20.20;80.60;;;;;;5134551;27;20365;-65
2022/04/04 11:50:30;;;;;;;7.78;2.80;;;20.10;80.30;;;;;;5124523;27;20439;-65
2022/04/04 11:53:02;;;;;;;6.15;2.55;;;20.10;80.50;;;;;;5106323;27;20583;-65
2022/04/04 12:01:40;;;;;;;6.82;3.03;;;20.10;81.20;;;;;;5119319;27;20054;-65
2022/04/04 12:04:07;;;;;;;5.40;2.65;;;20.10;81.10;;;;;;5116834;27;20448;-65
2022/04/04 12:06:35;;;;;;;11.40;2.88;;;20.00;81.10;;;;;;5112753;27;20092;-65
2022/04/04 12:09:07;;;;;;;7.70;3.55;;;20.00;81.30;;;;;;5115343;27;20426;-66
2022/04/04 12:11:35;;;;;;;12.27;3.22;;;20.00;81.50;;;;;;5133565;27;20556;-65
2022/04/04 12:14:02;;;;;;;13.05;3.90;;;19.90;81.70;;;;;;5131012;27;20039;-65
2022/04/04 12:16:30;;;;;;;9.40;3.33;;;19.90;81.90;;;;;;5131370;27;20031;-65
2022/04/04 12:19:00;;;;;;;10.00;3.35;;;19.90;81.90;;;;;;5106934;28;20122;-65
2022/04/04 12:21:27;;;;;;;;;;;19.80;82.10;;;;;;5102046;28;20027;-65
2022/04/04 12:26:39;;;;;;;7.55;2.75;;;19.80;82.40;;;;;;5100875;27;20185;-65
2022/04/04 12:29:14;;;;;;;7.03;3.00;;;19.80;82.30;;;;;;5139230;27;20435;-65
2022/04/04 12:32:02;;;;;;;8.20;2.63;;;19.80;82.40;;;;;;5117301;27;20039;-65
2022/04/04 12:34:29;;;;;;;7.47;2.67;;;19.80;82.40;;;;;;5127537;27;20030;-65
2022/04/04 12:37:02;;;;;;;5.25;2.67;;;19.80;82.60;;;;;;5132837;27;20039;-64
2022/04/04 12:39:29;;;;;;;6.13;2.70;;;19.70;82.70;;;;;;5146604;27;20417;-65
2022/04/04 12:41:56;;;;;;;3.15;2.10;;;19.70;82.50;;;;;;5121935;27;20489;-65
2022/04/04 12:44:27;;;;;;;6.03;2.53;;;19.70;82.60;;;;;;5134705;27;20019;-65
2022/04/04 12:47:11;;;;;;;5.28;2.35;;;19.70;82.50;;;;;;5121647;27;20496;-65
2022/04/04 12:49:39;;;;;;;4.63;2.95;;;19.70;82.50;;;;;;5109793;27;20369;-65
2022/04/04 12:52:08;;;;;;;6.72;2.58;;;19.60;82.60;;;;;;5129486;27;20062;-65
2022/04/04 12:54:37;;;;;;;4.93;2.50;;;19.60;82.50;;;;;;5133701;27;20079;-64
2022/04/04 12:57:06;;;;;;;6.18;2.80;;;19.60;82.50;;;;;;5140851;27;20039;-65
2022/04/04 13:02:09;;;;;;;5.45;2.50;;;19.50;82.70;;;;;;3429012;25;20044;-70
2022/04/04 13:04:40;;;;;;;6.55;2.42;;;19.50;83.00;;;;;;5114442;28;20047;-70
2022/04/04 13:07:16;;;;;;;;;;;19.50;83.00;;;;;;5114966;28;20057;-70
2022/04/04 13:09:52;;;;;;;4.28;2.38;;;19.50;83.00;;;;;;5130192;27;19949;-70
2022/04/04 13:12:30;;;;;;;4.93;2.00;;;19.40;81.70;;;;;;5123366;27;20431;-70
2022/04/04 13:14:58;;;;;;;4.15;2.20;;;19.40;81.10;;;;;;5134306;27;20061;-70
2022/04/04 13:17:38;;;;;;;8.75;2.30;;;19.40;81.10;;;;;;5116554;27;20544;-70
2022/04/04 13:20:05;;;;;;;;;;;19.40;80.90;;;;;;5117453;27;20102;-70
2022/04/04 13:22:33;;;;;;;5.00;2.28;;;19.40;81.20;;;;;;5123456;27;20251;-70
2022/04/04 13:25:00;;;;;;;5.13;2.72;;;19.30;81.50;;;;;;5114135;28;20031;-70
2022/04/04 13:27:27;;;;;;;3.35;2.30;;;19.30;80.70;;;;;;5112574;27;20038;-70
2022/04/04 13:29:54;;;;;;;6.00;3.00;;;19.30;79.40;;;;;;5134192;27;20049;-70
2022/04/04 13:32:22;;;;;;;6.28;2.40;;;19.30;79.10;;;;;;5125307;27;20078;-70
2022/04/04 13:34:49;;;;;;;6.38;2.42;;;19.30;78.90;;;;;;5113919;28;20073;-70
2022/04/04 13:37:17;;;;;;;6.97;2.60;;;19.30;78.90;;;;;;5113106;28;20040;-70
2022/04/04 13:39:44;;;;;;;4.30;2.50;;;19.30;78.70;;;;;;5078714;28;20110;-70
2022/04/04 13:42:15;;;;;;;7.53;2.67;;;19.30;78.70;;;;;;5069148;27;20084;-70
2022/04/04 13:44:42;;;;;;;7.20;2.47;;;19.30;78.90;;;;;;5116083;27;20108;-70
2022/04/04 13:47:10;;;;;;;11.18;2.30;;;19.20;78.60;;;;;;5134492;27;20062;-70
2022/04/04 13:49:37;;;;;;;3.97;2.40;;;19.30;78.80;;;;;;5116443;27;20053;-70
2022/04/04 13:52:09;;;;;;;3.97;2.20;;;19.20;78.00;;;;;;5127965;27;20044;-70
2022/04/04 13:54:36;;;;;;;8.15;2.40;;;19.20;77.90;;;;;;5133776;27;20031;-70
2022/04/04 13:57:04;;;;;;;4.65;1.90;;;19.20;78.10;;;;;;5133912;27;20043;-71
2022/04/04 13:59:31;;;;;;;5.95;2.53;;;19.10;77.80;;;;;;5134332;27;20036;-70
2022/04/04 14:01:58;;;;;;;4.38;2.13;;;19.10;77.60;;;;;;5132940;27;20039;-70
2022/04/04 14:04:26;;;;;;;5.70;2.55;;;19.00;76.90;;;;;;5115718;27;20023;-70
2022/04/04 14:06:54;;;;;;;6.65;2.38;;;19.10;77.10;;;;;;5115348;27;20054;-70
2022/04/04 14:09:21;;;;;;;7.00;2.47;;;19.10;77.20;;;;;;5098532;27;20552;-70
2022/04/04 14:11:48;;;;;;;5.25;2.55;;;19.00;77.30;;;;;;5130418;27;20077;-70
2022/04/04 14:14:15;;;;;;;4.40;2.50;;;19.00;77.70;;;;;;5095718;28;20031;-69
2022/04/04 14:16:42;;;;;;;5.63;2.45;;;19.00;77.60;;;;;;5095240;28;20116;-70
2022/04/04 14:19:09;;;;;;;6.53;2.05;;;19.00;78.10;;;;;;5095008;28;20428;-70
2022/04/04 14:21:37;;;;;;;5.70;1.98;;;19.00;78.20;;;;;;5116765;27;20058;-70
2022/04/04 14:24:06;;;;;;;6.70;2.17;;;19.00;78.20;;;;;;5115584;27;20055;-70
2022/04/04 14:26:35;;;;;;;6.47;2.22;;;19.00;77.50;;;;;;5134189;27;20035;-70
2022/04/04 14:29:03;;;;;;;8.68;2.17;;;18.90;77.20;;;;;;5115274;27;20058;-70
2022/04/04 14:31:31;;;;;;;7.45;2.17;;;18.90;77.30;;;;;;5112025;27;20095;-71
2022/04/04 14:34:00;;;;;;;4.85;2.20;;;18.90;77.30;;;;;;5111414;28;20535;-70
2022/04/04 14:36:27;;;;;;;4.85;2.30;;;18.80;77.30;;;;;;5094473;28;20027;-69
2022/04/04 14:38:55;;;;;;;5.68;2.30;;;18.80;77.00;;;;;;5077850;28;20078;-70
2022/04/04 14:41:22;;;;;;;3.70;1.85;;;18.80;76.90;;;;;;5115436;27;20027;-70
2022/04/04 14:43:49;;;;;;;3.58;2.15;;;18.80;77.10;;;;;;5114786;27;20110;-70
2022/04/04 14:46:17;;;;;;;3.65;2.20;;;18.80;77.20;;;;;;5096311;27;20074;-70
2022/04/04 14:48:44;;;;;;;2.90;2.08;;;18.70;77.30;;;;;;5092993;28;20134;-70
2022/04/04 14:51:15;;;;;;;3.03;2.00;;;18.70;77.90;;;;;;5094786;28;20034;-70
2022/04/04 14:53:42;;;;;;;4.43;2.20;;;18.70;77.70;;;;;;5078224;28;20024;-70
2022/04/04 14:56:11;;;;;;;5.15;2.40;;;18.70;77.60;;;;;;5094704;28;20051;-70
2022/04/04 14:58:38;;;;;;;3.33;2.05;;;18.70;77.60;;;;;;5077574;28;20059;-70
2022/04/04 15:01:06;;;;;;;4.70;2.08;;;18.70;77.70;;;;;;5120661;27;20030;-70
2022/04/04 15:03:34;;;;;;;5.32;2.45;;;18.70;77.90;;;;;;5097859;27;20398;-70
2022/04/04 15:06:01;;;;;;;3.85;2.40;;;18.70;77.80;;;;;;5097992;27;20043;-70
2022/04/04 15:08:29;;;;;;;7.40;2.45;;;18.60;77.90;;;;;;5133003;27;20023;-70
2022/04/04 15:10:56;;;;;;;6.40;2.10;;;18.60;77.60;;;;;;5113389;27;20050;-70
2022/04/04 15:13:23;;;;;;;5.93;2.10;;;18.70;77.30;;;;;;5111599;28;20513;-70
2022/04/04 15:15:51;;;;;;;3.83;2.33;;;18.70;76.70;;;;;;5110719;28;20042;-70
2022/04/04 15:18:18;;;;;;;4.78;2.30;;;18.70;76.60;;;;;;5093933;28;20107;-70
2022/04/04 15:20:45;;;;;;;5.90;2.40;;;18.60;76.50;;;;;;5124098;27;20023;-70
2022/04/04 15:23:13;;;;;;;5.18;2.30;;;18.60;76.40;;;;;;5094321;28;20038;-70
2022/04/04 15:25:40;;;;;;;5.72;2.22;;;18.60;76.30;;;;;;5112126;28;20040;-70
2022/04/04 15:28:07;;;;;;;5.35;2.25;;;18.60;75.90;;;;;;5093709;28;20031;-70
2022/04/04 15:30:38;;;;;;;9.05;2.28;;;18.60;75.60;;;;;;5111896;28;20035;-70
2022/04/04 15:33:06;;;;;;;5.55;2.28;;;18.60;75.20;;;;;;5093580;28;20045;-70
2022/04/04 15:35:34;;;;;;;8.32;2.67;;;18.60;74.90;;;;;;5093814;28;20446;-69
2022/04/04 15:38:01;;;;;;;6.47;2.47;;;18.60;73.60;;;;;;5093517;28;20092;-70
2022/04/04 15:40:28;;;;;;;5.45;2.22;;;18.60;73.60;;;;;;5093387;28;20032;-70
2022/04/04 15:42:56;;;;;;;9.15;2.70;;;18.60;72.90;;;;;;5125838;27;20039;-70
2022/04/04 15:45:23;;;;;;;4.05;2.22;;;18.60;71.90;;;;;;5130680;27;20024;-70
2022/04/04 15:47:52;;;;;;;5.25;2.17;;;18.50;72.30;;;;;;5130722;27;20038;-70
2022/04/04 15:50:20;;;;;;;5.60;2.38;;;18.60;70.90;;;;;;5097614;27;20033;-70
2022/04/04 15:52:47;;;;;;;7.95;2.38;;;18.60;69.50;;;;;;5112421;27;20127;-70
2022/04/04 15:55:14;;;;;;;5.10;1.92;;;18.60;69.80;;;;;;5113873;27;20035;-70
2022/04/04 15:57:41;;;;;;;5.63;2.60;;;18.60;69.80;;;;;;5131726;27;20047;-70
2022/04/04 16:00:11;;;;;;;7.25;2.10;;;18.50;70.00;;;;;;5096603;27;20039;-70
2022/04/04 16:02:40;;;;;;;5.03;2.50;;;18.60;70.00;;;;;;5092550;28;20044;-70
2022/04/04 16:05:08;;;;;;;3.17;2.15;;;18.50;70.20;;;;;;5109778;28;20038;-70
2022/04/04 16:07:35;;;;;;;5.57;2.38;;;18.50;69.50;;;;;;5099317;28;20023;-70
2022/04/04 16:10:03;;;;;;;4.70;2.17;;;18.50;70.10;;;;;;5090982;28;20454;-70
2022/04/04 16:12:30;;;;;;;5.32;2.10;;;18.50;70.10;;;;;;5093183;28;20027;-70
2022/04/04 16:14:58;;;;;;;9.30;2.35;;;18.50;69.90;;;;;;5111288;28;20039;-70
2022/04/04 16:17:26;;;;;;;7.25;2.10;;;18.40;69.30;;;;;;5114888;28;20039;-70